sensor_id;sensor_type;location;lat;lon;timestamp;P1;durP1;ratioP1;P2;durP2;ratioP2
9720;SDS011;4899;42.644;23.366;2024-03-08T00:00:07;15.63;;;12.40;;
9720;SDS011;4899;42.644;23.366;2024-03-08T00:02:37;13.80;;;12.07;;
9720;SDS011;4899;42.644;23.366;2024-03-08T00:05:06;12.50;;;10.10;;
9720;SDS011;4899;42.644;23.366;2024-03-08T00:07:34;13.00;;;9.63;;
9720;SDS011;4899;42.644;23.366;2024-03-08T00:09:59;13.10;;;10.40;;
9720;SDS011;4899;42.644;23.366;2024-03-08T00:12:24;13.97;;;10.80;;
9720;SDS011;4899;42.644;23.366;2024-03-08T00:14:52;12.43;;;10.70;;
9720;SDS011;4899;42.644;23.366;2024-03-08T00:17:17;12.97;;;10.17;;
9720;SDS011;4899;42.644;23.366;2024-03-08T00:19:42;12.47;;;10.57;;
9720;SDS011;4899;42.644;23.366;2024-03-08T00:22:08;13.80;;;9.20;;
9720;SDS011;4899;42.644;23.366;2024-03-08T00:24:33;9.83;;;8.80;;
9720;SDS011;4899;42.644;23.366;2024-03-08T00:26:59;10.03;;;8.13;;
9720;SDS011;4899;42.644;23.366;2024-03-08T00:29:24;10.00;;;8.83;;
9720;SDS011;4899;42.644;23.366;2024-03-08T00:31:49;8.77;;;7.80;;
9720;SDS011;4899;42.644;23.366;2024-03-08T00:34:15;10.73;;;8.20;;
9720;SDS011;4899;42.644;23.366;2024-03-08T00:36:41;9.90;;;8.20;;
9720;SDS011;4899;42.644;23.366;2024-03-08T00:39:06;11.33;;;8.87;;
9720;SDS011;4899;42.644;23.366;2024-03-08T00:41:32;10.57;;;8.13;;
9720;SDS011;4899;42.644;23.366;2024-03-08T00:43:57;13.93;;;8.93;;
9720;SDS011;4899;42.644;23.366;2024-03-08T00:46:22;9.03;;;7.93;;
9720;SDS011;4899;42.644;23.366;2024-03-08T00:48:48;10.23;;;7.97;;
9720;SDS011;4899;42.644;23.366;2024-03-08T00:51:13;8.20;;;7.23;;
9720;SDS011;4899;42.644;23.366;2024-03-08T00:53:40;10.30;;;8.50;;
9720;SDS011;4899;42.644;23.366;2024-03-08T00:56:05;12.77;;;10.27;;
9720;SDS011;4899;42.644;23.366;2024-03-08T00:58:31;12.87;;;9.63;;
9720;SDS011;4899;42.644;23.366;2024-03-08T01:00:56;13.97;;;9.00;;
9720;SDS011;4899;42.644;23.366;2024-03-08T01:03:22;10.43;;;8.30;;
9720;SDS011;4899;42.644;23.366;2024-03-08T01:05:47;9.73;;;7.83;;
9720;SDS011;4899;42.644;23.366;2024-03-08T01:08:13;9.13;;;7.83;;
9720;SDS011;4899;42.644;23.366;2024-03-08T01:10:38;8.07;;;6.87;;
9720;SDS011;4899;42.644;23.366;2024-03-08T01:13:03;7.97;;;6.50;;
9720;SDS011;4899;42.644;23.366;2024-03-08T01:15:29;7.13;;;5.93;;
9720;SDS011;4899;42.644;23.366;2024-03-08T01:17:55;8.10;;;6.43;;
9720;SDS011;4899;42.644;23.366;2024-03-08T01:20:20;7.10;;;6.10;;
9720;SDS011;4899;42.644;23.366;2024-03-08T01:22:46;6.53;;;5.13;;
9720;SDS011;4899;42.644;23.366;2024-03-08T01:25:11;5.90;;;5.10;;
9720;SDS011;4899;42.644;23.366;2024-03-08T01:27:36;5.80;;;4.47;;
9720;SDS011;4899;42.644;23.366;2024-03-08T01:30:02;4.90;;;4.40;;
9720;SDS011;4899;42.644;23.366;2024-03-08T01:32:28;4.13;;;3.57;;
9720;SDS011;4899;42.644;23.366;2024-03-08T01:34:53;4.03;;;3.63;;
9720;SDS011;4899;42.644;23.366;2024-03-08T01:37:18;3.60;;;3.30;;
9720;SDS011;4899;42.644;23.366;2024-03-08T01:39:44;3.80;;;3.50;;
9720;SDS011;4899;42.644;23.366;2024-03-08T01:42:10;3.93;;;3.57;;
9720;SDS011;4899;42.644;23.366;2024-03-08T01:44:38;3.40;;;2.97;;
9720;SDS011;4899;42.644;23.366;2024-03-08T01:47:03;3.70;;;3.27;;
9720;SDS011;4899;42.644;23.366;2024-03-08T01:49:28;3.80;;;3.50;;
9720;SDS011;4899;42.644;23.366;2024-03-08T01:51:54;4.57;;;3.40;;
9720;SDS011;4899;42.644;23.366;2024-03-08T01:54:21;3.80;;;3.50;;
9720;SDS011;4899;42.644;23.366;2024-03-08T01:56:48;3.87;;;3.57;;
9720;SDS011;4899;42.644;23.366;2024-03-08T01:59:14;3.57;;;3.27;;
9720;SDS011;4899;42.644;23.366;2024-03-08T02:01:39;4.20;;;2.90;;
9720;SDS011;4899;42.644;23.366;2024-03-08T02:04:05;3.87;;;3.47;;
9720;SDS011;4899;42.644;23.366;2024-03-08T02:06:32;4.60;;;3.30;;
9720;SDS011;4899;42.644;23.366;2024-03-08T02:08:57;4.27;;;3.33;;
9720;SDS011;4899;42.644;23.366;2024-03-08T02:11:23;4.43;;;3.67;;
9720;SDS011;4899;42.644;23.366;2024-03-08T02:13:48;3.37;;;3.07;;
9720;SDS011;4899;42.644;23.366;2024-03-08T02:16:19;3.93;;;3.40;;
9720;SDS011;4899;42.644;23.366;2024-03-08T02:18:45;3.70;;;3.40;;
9720;SDS011;4899;42.644;23.366;2024-03-08T02:21:10;3.20;;;2.90;;
9720;SDS011;4899;42.644;23.366;2024-03-08T02:23:35;3.30;;;3.00;;
9720;SDS011;4899;42.644;23.366;2024-03-08T02:26:02;4.60;;;2.83;;
9720;SDS011;4899;42.644;23.366;2024-03-08T02:28:29;3.50;;;2.47;;
9720;SDS011;4899;42.644;23.366;2024-03-08T02:30:55;3.00;;;2.70;;
9720;SDS011;4899;42.644;23.366;2024-03-08T02:33:21;3.10;;;2.80;;
9720;SDS011;4899;42.644;23.366;2024-03-08T02:35:47;2.53;;;2.33;;
9720;SDS011;4899;42.644;23.366;2024-03-08T02:38:13;2.60;;;2.40;;
9720;SDS011;4899;42.644;23.366;2024-03-08T02:40:41;2.80;;;2.60;;
9720;SDS011;4899;42.644;23.366;2024-03-08T02:43:06;2.80;;;2.47;;
9720;SDS011;4899;42.644;23.366;2024-03-08T02:45:32;3.37;;;2.40;;
9720;SDS011;4899;42.644;23.366;2024-03-08T02:47:57;3.00;;;2.80;;
9720;SDS011;4899;42.644;23.366;2024-03-08T02:50:22;2.97;;;2.70;;
9720;SDS011;4899;42.644;23.366;2024-03-08T02:52:48;3.37;;;3.07;;
9720;SDS011;4899;42.644;23.366;2024-03-08T02:55:13;3.43;;;3.13;;
9720;SDS011;4899;42.644;23.366;2024-03-08T02:57:41;2.80;;;2.60;;
9720;SDS011;4899;42.644;23.366;2024-03-08T03:00:07;3.43;;;2.80;;
9720;SDS011;4899;42.644;23.366;2024-03-08T03:02:34;2.90;;;2.40;;
9720;SDS011;4899;42.644;23.366;2024-03-08T03:04:59;2.30;;;2.20;;
9720;SDS011;4899;42.644;23.366;2024-03-08T03:07:29;2.70;;;2.50;;
9720;SDS011;4899;42.644;23.366;2024-03-08T03:09:55;3.10;;;2.73;;
9720;SDS011;4899;42.644;23.366;2024-03-08T03:12:20;2.27;;;2.17;;
9720;SDS011;4899;42.644;23.366;2024-03-08T03:14:45;2.83;;;2.63;;
9720;SDS011;4899;42.644;23.366;2024-03-08T03:17:11;3.20;;;2.90;;
9720;SDS011;4899;42.644;23.366;2024-03-08T03:19:36;2.80;;;2.60;;
9720;SDS011;4899;42.644;23.366;2024-03-08T03:22:01;2.00;;;1.90;;
9720;SDS011;4899;42.644;23.366;2024-03-08T03:24:27;2.27;;;2.07;;
9720;SDS011;4899;42.644;23.366;2024-03-08T03:26:54;1.77;;;1.67;;
9720;SDS011;4899;42.644;23.366;2024-03-08T03:29:20;1.57;;;1.47;;
9720;SDS011;4899;42.644;23.366;2024-03-08T03:31:45;1.80;;;1.60;;
9720;SDS011;4899;42.644;23.366;2024-03-08T03:34:12;1.50;;;1.40;;
9720;SDS011;4899;42.644;23.366;2024-03-08T03:36:37;1.20;;;1.10;;
9720;SDS011;4899;42.644;23.366;2024-03-08T03:39:03;1.60;;;1.50;;
9720;SDS011;4899;42.644;23.366;2024-03-08T03:41:36;1.07;;;1.07;;
9720;SDS011;4899;42.644;23.366;2024-03-08T03:44:01;0.90;;;0.90;;
9720;SDS011;4899;42.644;23.366;2024-03-08T03:46:26;1.00;;;1.00;;
9720;SDS011;4899;42.644;23.366;2024-03-08T03:48:52;1.17;;;1.07;;
9720;SDS011;4899;42.644;23.366;2024-03-08T03:51:17;4.20;;;2.90;;
9720;SDS011;4899;42.644;23.366;2024-03-08T03:53:44;1.13;;;1.07;;
9720;SDS011;4899;42.644;23.366;2024-03-08T03:56:09;1.27;;;1.17;;
9720;SDS011;4899;42.644;23.366;2024-03-08T03:58:35;1.20;;;1.10;;
9720;SDS011;4899;42.644;23.366;2024-03-08T04:01:01;3.27;;;1.47;;
9720;SDS011;4899;42.644;23.366;2024-03-08T04:03:26;5.47;;;3.07;;
9720;SDS011;4899;42.644;23.366;2024-03-08T04:05:51;1.30;;;1.27;;
9720;SDS011;4899;42.644;23.366;2024-03-08T04:08:17;1.23;;;1.13;;
9720;SDS011;4899;42.644;23.366;2024-03-08T04:10:42;3.93;;;2.93;;
9720;SDS011;4899;42.644;23.366;2024-03-08T04:13:07;10.27;;;7.40;;
9720;SDS011;4899;42.644;23.366;2024-03-08T04:15:34;6.73;;;5.80;;
9720;SDS011;4899;42.644;23.366;2024-03-08T04:17:59;24.50;;;18.07;;
9720;SDS011;4899;42.644;23.366;2024-03-08T04:20:25;2.27;;;2.07;;
9720;SDS011;4899;42.644;23.366;2024-03-08T04:22:50;1.60;;;1.50;;
9720;SDS011;4899;42.644;23.366;2024-03-08T04:25:16;1.47;;;1.33;;
9720;SDS011;4899;42.644;23.366;2024-03-08T04:27:41;1.50;;;1.40;;
9720;SDS011;4899;42.644;23.366;2024-03-08T04:30:06;8.93;;;7.93;;
9720;SDS011;4899;42.644;23.366;2024-03-08T04:32:32;5.50;;;5.00;;
9720;SDS011;4899;42.644;23.366;2024-03-08T04:34:58;4.30;;;3.90;;
9720;SDS011;4899;42.644;23.366;2024-03-08T04:37:23;4.97;;;4.57;;
9720;SDS011;4899;42.644;23.366;2024-03-08T04:39:48;4.57;;;4.17;;
9720;SDS011;4899;42.644;23.366;2024-03-08T04:42:14;5.00;;;4.37;;
9720;SDS011;4899;42.644;23.366;2024-03-08T04:44:39;3.57;;;3.27;;
9720;SDS011;4899;42.644;23.366;2024-03-08T04:47:05;1.60;;;1.50;;
9720;SDS011;4899;42.644;23.366;2024-03-08T04:49:33;1.70;;;1.60;;
9720;SDS011;4899;42.644;23.366;2024-03-08T04:52:04;1.50;;;1.40;;
9720;SDS011;4899;42.644;23.366;2024-03-08T04:54:30;1.50;;;1.40;;
9720;SDS011;4899;42.644;23.366;2024-03-08T04:56:56;1.50;;;1.40;;
9720;SDS011;4899;42.644;23.366;2024-03-08T04:59:21;1.33;;;1.30;;
9720;SDS011;4899;42.644;23.366;2024-03-08T05:01:46;1.67;;;1.57;;
9720;SDS011;4899;42.644;23.366;2024-03-08T05:04:12;1.60;;;1.50;;
9720;SDS011;4899;42.644;23.366;2024-03-08T05:06:37;1.27;;;1.17;;
9720;SDS011;4899;42.644;23.366;2024-03-08T05:09:03;1.40;;;1.30;;
9720;SDS011;4899;42.644;23.366;2024-03-08T05:11:40;1.20;;;1.20;;
9720;SDS011;4899;42.644;23.366;2024-03-08T05:14:06;1.70;;;1.60;;
9720;SDS011;4899;42.644;23.366;2024-03-08T05:16:31;2.97;;;1.80;;
9720;SDS011;4899;42.644;23.366;2024-03-08T05:18:56;1.43;;;1.33;;
9720;SDS011;4899;42.644;23.366;2024-03-08T05:21:22;1.80;;;1.70;;
9720;SDS011;4899;42.644;23.366;2024-03-08T05:23:48;3.03;;;1.43;;
9720;SDS011;4899;42.644;23.366;2024-03-08T05:26:15;1.60;;;1.47;;
9720;SDS011;4899;42.644;23.366;2024-03-08T05:28:40;1.50;;;1.40;;
9720;SDS011;4899;42.644;23.366;2024-03-08T05:31:06;1.40;;;1.30;;
9720;SDS011;4899;42.644;23.366;2024-03-08T05:33:31;1.60;;;1.50;;
9720;SDS011;4899;42.644;23.366;2024-03-08T05:35:59;1.73;;;1.40;;
9720;SDS011;4899;42.644;23.366;2024-03-08T05:38:25;1.33;;;1.23;;
9720;SDS011;4899;42.644;23.366;2024-03-08T05:40:51;1.43;;;1.33;;
9720;SDS011;4899;42.644;23.366;2024-03-08T05:43:16;2.17;;;1.57;;
9720;SDS011;4899;42.644;23.366;2024-03-08T05:45:44;1.80;;;1.70;;
9720;SDS011;4899;42.644;23.366;2024-03-08T05:48:10;3.07;;;2.87;;
9720;SDS011;4899;42.644;23.366;2024-03-08T05:50:37;3.80;;;3.50;;
9720;SDS011;4899;42.644;23.366;2024-03-08T05:53:03;5.73;;;4.67;;
9720;SDS011;4899;42.644;23.366;2024-03-08T05:55:30;5.30;;;4.33;;
9720;SDS011;4899;42.644;23.366;2024-03-08T05:57:55;5.30;;;4.53;;
9720;SDS011;4899;42.644;23.366;2024-03-08T06:00:21;6.53;;;5.60;;
9720;SDS011;4899;42.644;23.366;2024-03-08T06:02:47;5.17;;;4.67;;
9720;SDS011;4899;42.644;23.366;2024-03-08T06:05:12;6.53;;;5.53;;
9720;SDS011;4899;42.644;23.366;2024-03-08T06:07:38;6.17;;;5.47;;
9720;SDS011;4899;42.644;23.366;2024-03-08T06:10:06;6.50;;;5.30;;
9720;SDS011;4899;42.644;23.366;2024-03-08T06:12:31;5.67;;;5.07;;
9720;SDS011;4899;42.644;23.366;2024-03-08T06:14:58;6.57;;;5.83;;
9720;SDS011;4899;42.644;23.366;2024-03-08T06:17:23;6.53;;;5.47;;
9720;SDS011;4899;42.644;23.366;2024-03-08T06:19:50;6.57;;;5.77;;
9720;SDS011;4899;42.644;23.366;2024-03-08T06:22:16;6.13;;;5.53;;
9720;SDS011;4899;42.644;23.366;2024-03-08T06:24:41;5.80;;;5.20;;
9720;SDS011;4899;42.644;23.366;2024-03-08T06:27:07;6.63;;;5.93;;
9720;SDS011;4899;42.644;23.366;2024-03-08T06:29:34;6.27;;;5.43;;
9720;SDS011;4899;42.644;23.366;2024-03-08T06:32:00;8.13;;;6.40;;
9720;SDS011;4899;42.644;23.366;2024-03-08T06:34:25;8.97;;;6.53;;
9720;SDS011;4899;42.644;23.366;2024-03-08T06:36:50;10.17;;;7.10;;
9720;SDS011;4899;42.644;23.366;2024-03-08T06:39:17;6.97;;;6.27;;
9720;SDS011;4899;42.644;23.366;2024-03-08T06:41:42;8.23;;;6.33;;
9720;SDS011;4899;42.644;23.366;2024-03-08T06:44:09;7.20;;;5.93;;
9720;SDS011;4899;42.644;23.366;2024-03-08T06:46:35;6.83;;;6.13;;
9720;SDS011;4899;42.644;23.366;2024-03-08T06:49:00;6.47;;;5.70;;
9720;SDS011;4899;42.644;23.366;2024-03-08T06:51:26;7.37;;;6.47;;
9720;SDS011;4899;42.644;23.366;2024-03-08T06:53:51;8.40;;;7.60;;
9720;SDS011;4899;42.644;23.366;2024-03-08T06:56:18;8.10;;;7.30;;
9720;SDS011;4899;42.644;23.366;2024-03-08T06:58:44;7.60;;;6.80;;
9720;SDS011;4899;42.644;23.366;2024-03-08T07:01:10;7.10;;;6.40;;
9720;SDS011;4899;42.644;23.366;2024-03-08T07:03:39;8.97;;;7.53;;
9720;SDS011;4899;42.644;23.366;2024-03-08T07:06:09;7.43;;;6.73;;
9720;SDS011;4899;42.644;23.366;2024-03-08T07:08:34;7.10;;;6.40;;
9720;SDS011;4899;42.644;23.366;2024-03-08T07:10:59;6.63;;;5.77;;
9720;SDS011;4899;42.644;23.366;2024-03-08T07:13:24;7.03;;;6.07;;
9720;SDS011;4899;42.644;23.366;2024-03-08T07:15:50;7.20;;;6.50;;
9720;SDS011;4899;42.644;23.366;2024-03-08T07:18:17;7.07;;;6.27;;
9720;SDS011;4899;42.644;23.366;2024-03-08T07:20:42;7.10;;;6.13;;
9720;SDS011;4899;42.644;23.366;2024-03-08T07:23:08;9.03;;;7.90;;
9720;SDS011;4899;42.644;23.366;2024-03-08T07:25:34;6.03;;;5.53;;
9720;SDS011;4899;42.644;23.366;2024-03-08T07:28:00;6.77;;;5.93;;
9720;SDS011;4899;42.644;23.366;2024-03-08T07:30:26;9.60;;;8.20;;
9720;SDS011;4899;42.644;23.366;2024-03-08T07:33:09;6.67;;;5.47;;
9720;SDS011;4899;42.644;23.366;2024-03-08T07:35:38;7.13;;;6.43;;
9720;SDS011;4899;42.644;23.366;2024-03-08T07:38:04;5.67;;;4.97;;
9720;SDS011;4899;42.644;23.366;2024-03-08T07:40:30;4.87;;;4.30;;
9720;SDS011;4899;42.644;23.366;2024-03-08T07:42:55;5.63;;;4.03;;
9720;SDS011;4899;42.644;23.366;2024-03-08T07:45:21;4.77;;;4.37;;
9720;SDS011;4899;42.644;23.366;2024-03-08T07:47:47;3.83;;;3.50;;
9720;SDS011;4899;42.644;23.366;2024-03-08T07:50:12;4.03;;;3.63;;
9720;SDS011;4899;42.644;23.366;2024-03-08T07:52:41;3.47;;;3.17;;
9720;SDS011;4899;42.644;23.366;2024-03-08T07:55:06;3.97;;;3.30;;
9720;SDS011;4899;42.644;23.366;2024-03-08T07:57:32;3.63;;;3.33;;
9720;SDS011;4899;42.644;23.366;2024-03-08T07:59:58;4.20;;;3.80;;
9720;SDS011;4899;42.644;23.366;2024-03-08T08:02:23;4.43;;;4.03;;
9720;SDS011;4899;42.644;23.366;2024-03-08T08:04:49;5.17;;;4.20;;
9720;SDS011;4899;42.644;23.366;2024-03-08T08:07:14;5.50;;;5.00;;
9720;SDS011;4899;42.644;23.366;2024-03-08T08:09:40;5.30;;;4.80;;
9720;SDS011;4899;42.644;23.366;2024-03-08T08:12:05;6.07;;;5.13;;
9720;SDS011;4899;42.644;23.366;2024-03-08T08:14:32;5.40;;;4.90;;
9720;SDS011;4899;42.644;23.366;2024-03-08T08:16:57;5.27;;;4.77;;
9720;SDS011;4899;42.644;23.366;2024-03-08T08:19:25;6.60;;;4.30;;
9720;SDS011;4899;42.644;23.366;2024-03-08T08:21:51;5.67;;;5.17;;
9720;SDS011;4899;42.644;23.366;2024-03-08T08:24:17;4.87;;;4.47;;
9720;SDS011;4899;42.644;23.366;2024-03-08T08:26:42;4.60;;;4.20;;
9720;SDS011;4899;42.644;23.366;2024-03-08T08:29:09;6.53;;;4.60;;
9720;SDS011;4899;42.644;23.366;2024-03-08T08:31:34;4.77;;;4.37;;
9720;SDS011;4899;42.644;23.366;2024-03-08T08:34:00;4.63;;;4.23;;
9720;SDS011;4899;42.644;23.366;2024-03-08T08:36:25;6.33;;;4.13;;
9720;SDS011;4899;42.644;23.366;2024-03-08T08:38:50;5.93;;;4.57;;
9720;SDS011;4899;42.644;23.366;2024-03-08T08:41:19;4.47;;;3.90;;
9720;SDS011;4899;42.644;23.366;2024-03-08T08:43:44;6.43;;;3.90;;
9720;SDS011;4899;42.644;23.366;2024-03-08T08:46:10;6.43;;;4.30;;
9720;SDS011;4899;42.644;23.366;2024-03-08T08:48:41;5.30;;;4.80;;
9720;SDS011;4899;42.644;23.366;2024-03-08T08:51:06;4.60;;;4.20;;
9720;SDS011;4899;42.644;23.366;2024-03-08T08:53:32;6.03;;;4.50;;
9720;SDS011;4899;42.644;23.366;2024-03-08T08:55:57;4.90;;;4.50;;
9720;SDS011;4899;42.644;23.366;2024-03-08T08:58:22;5.40;;;4.90;;
9720;SDS011;4899;42.644;23.366;2024-03-08T09:00:48;5.13;;;4.63;;
9720;SDS011;4899;42.644;23.366;2024-03-08T09:03:15;7.50;;;4.00;;
9720;SDS011;4899;42.644;23.366;2024-03-08T09:05:42;4.67;;;4.27;;
9720;SDS011;4899;42.644;23.366;2024-03-08T09:08:07;3.80;;;3.50;;
9720;SDS011;4899;42.644;23.366;2024-03-08T09:10:33;4.27;;;3.87;;
9720;SDS011;4899;42.644;23.366;2024-03-08T09:12:59;4.93;;;3.57;;
9720;SDS011;4899;42.644;23.366;2024-03-08T09:15:24;4.33;;;3.23;;
9720;SDS011;4899;42.644;23.366;2024-03-08T09:17:52;4.27;;;3.70;;
9720;SDS011;4899;42.644;23.366;2024-03-08T09:20:17;4.33;;;3.83;;
9720;SDS011;4899;42.644;23.366;2024-03-08T09:22:44;4.37;;;3.50;;
9720;SDS011;4899;42.644;23.366;2024-03-08T09:25:09;5.37;;;3.70;;
9720;SDS011;4899;42.644;23.366;2024-03-08T09:27:35;3.07;;;2.87;;
9720;SDS011;4899;42.644;23.366;2024-03-08T09:30:00;4.63;;;3.13;;
9720;SDS011;4899;42.644;23.366;2024-03-08T09:32:26;3.03;;;2.73;;
9720;SDS011;4899;42.644;23.366;2024-03-08T09:34:51;3.40;;;3.10;;
9720;SDS011;4899;42.644;23.366;2024-03-08T09:37:16;3.20;;;2.90;;
9720;SDS011;4899;42.644;23.366;2024-03-08T09:39:42;3.03;;;2.83;;
9720;SDS011;4899;42.644;23.366;2024-03-08T09:42:07;3.37;;;2.67;;
9720;SDS011;4899;42.644;23.366;2024-03-08T09:44:33;2.70;;;2.50;;
9720;SDS011;4899;42.644;23.366;2024-03-08T09:47:00;2.33;;;2.23;;
9720;SDS011;4899;42.644;23.366;2024-03-08T09:49:27;3.97;;;2.77;;
9720;SDS011;4899;42.644;23.366;2024-03-08T09:51:53;4.33;;;3.03;;
9720;SDS011;4899;42.644;23.366;2024-03-08T09:54:20;2.83;;;2.57;;
9720;SDS011;4899;42.644;23.366;2024-03-08T09:56:47;4.90;;;2.60;;
9720;SDS011;4899;42.644;23.366;2024-03-08T09:59:13;2.27;;;2.07;;
9720;SDS011;4899;42.644;23.366;2024-03-08T10:01:53;4.33;;;2.37;;
9720;SDS011;4899;42.644;23.366;2024-03-08T10:04:24;2.57;;;2.20;;
9720;SDS011;4899;42.644;23.366;2024-03-08T10:06:50;4.17;;;2.53;;
9720;SDS011;4899;42.644;23.366;2024-03-08T10:09:16;2.43;;;2.13;;
9720;SDS011;4899;42.644;23.366;2024-03-08T10:11:41;2.03;;;1.93;;
9720;SDS011;4899;42.644;23.366;2024-03-08T10:14:08;3.63;;;2.40;;
9720;SDS011;4899;42.644;23.366;2024-03-08T10:16:33;2.00;;;1.90;;
9720;SDS011;4899;42.644;23.366;2024-03-08T10:19:00;2.70;;;2.50;;
9720;SDS011;4899;42.644;23.366;2024-03-08T10:21:25;2.37;;;2.17;;
9720;SDS011;4899;42.644;23.366;2024-03-08T10:23:51;2.57;;;2.37;;
9720;SDS011;4899;42.644;23.366;2024-03-08T10:26:16;2.30;;;2.10;;
9720;SDS011;4899;42.644;23.366;2024-03-08T10:28:46;2.20;;;2.00;;
9720;SDS011;4899;42.644;23.366;2024-03-08T10:31:18;2.00;;;1.90;;
9720;SDS011;4899;42.644;23.366;2024-03-08T10:33:44;2.43;;;1.93;;
9720;SDS011;4899;42.644;23.366;2024-03-08T10:36:10;2.00;;;1.90;;
9720;SDS011;4899;42.644;23.366;2024-03-08T10:38:37;2.43;;;2.10;;
9720;SDS011;4899;42.644;23.366;2024-03-08T10:41:03;2.30;;;2.13;;
9720;SDS011;4899;42.644;23.366;2024-03-08T10:43:30;2.77;;;2.20;;
9720;SDS011;4899;42.644;23.366;2024-03-08T10:46:06;2.40;;;1.93;;
9720;SDS011;4899;42.644;23.366;2024-03-08T10:48:38;2.07;;;1.77;;
9720;SDS011;4899;42.644;23.366;2024-03-08T10:51:08;1.90;;;1.80;;
9720;SDS011;4899;42.644;23.366;2024-03-08T10:53:36;3.13;;;1.80;;
9720;SDS011;4899;42.644;23.366;2024-03-08T10:56:04;1.87;;;1.77;;
9720;SDS011;4899;42.644;23.366;2024-03-08T10:58:30;2.17;;;1.43;;
9720;SDS011;4899;42.644;23.366;2024-03-08T11:00:56;2.63;;;2.10;;
9720;SDS011;4899;42.644;23.366;2024-03-08T11:06:13;2.20;;;2.00;;
9720;SDS011;4899;42.644;23.366;2024-03-08T11:08:40;1.70;;;1.60;;
9720;SDS011;4899;42.644;23.366;2024-03-08T11:11:05;1.57;;;1.47;;
9720;SDS011;4899;42.644;23.366;2024-03-08T11:13:34;1.70;;;1.60;;
9720;SDS011;4899;42.644;23.366;2024-03-08T11:16:00;2.67;;;1.73;;
9720;SDS011;4899;42.644;23.366;2024-03-08T11:18:26;1.73;;;1.63;;
9720;SDS011;4899;42.644;23.366;2024-03-08T11:20:54;1.90;;;1.80;;
9720;SDS011;4899;42.644;23.366;2024-03-08T11:23:21;2.20;;;2.00;;
9720;SDS011;4899;42.644;23.366;2024-03-08T11:25:47;1.60;;;1.50;;
9720;SDS011;4899;42.644;23.366;2024-03-08T11:28:18;2.10;;;1.87;;
9720;SDS011;4899;42.644;23.366;2024-03-08T11:31:22;1.67;;;1.47;;
9720;SDS011;4899;42.644;23.366;2024-03-08T11:33:34;1.60;;;1.50;;
9720;SDS011;4899;42.644;23.366;2024-03-08T11:38:28;1.80;;;1.70;;
9720;SDS011;4899;42.644;23.366;2024-03-08T11:40:56;1.90;;;1.60;;
9720;SDS011;4899;42.644;23.366;2024-03-08T11:43:21;2.13;;;2.03;;
9720;SDS011;4899;42.644;23.366;2024-03-08T11:45:47;1.77;;;1.67;;
9720;SDS011;4899;42.644;23.366;2024-03-08T11:48:13;1.20;;;1.20;;
9720;SDS011;4899;42.644;23.366;2024-03-08T11:50:38;1.57;;;1.23;;
9720;SDS011;4899;42.644;23.366;2024-03-08T11:53:03;1.47;;;1.40;;
9720;SDS011;4899;42.644;23.366;2024-03-08T11:55:29;1.90;;;1.43;;
9720;SDS011;4899;42.644;23.366;2024-03-08T11:58:04;1.10;;;1.10;;
9720;SDS011;4899;42.644;23.366;2024-03-08T12:00:30;1.63;;;1.53;;
9720;SDS011;4899;42.644;23.366;2024-03-08T12:03:06;1.20;;;1.20;;
9720;SDS011;4899;42.644;23.366;2024-03-08T12:05:32;1.50;;;1.40;;
9720;SDS011;4899;42.644;23.366;2024-03-08T12:07:58;1.40;;;1.30;;
9720;SDS011;4899;42.644;23.366;2024-03-08T12:10:24;1.40;;;1.40;;
9720;SDS011;4899;42.644;23.366;2024-03-08T12:12:53;3.03;;;1.40;;
9720;SDS011;4899;42.644;23.366;2024-03-08T12:15:19;1.83;;;1.20;;
9720;SDS011;4899;42.644;23.366;2024-03-08T12:17:48;1.70;;;1.30;;
9720;SDS011;4899;42.644;23.366;2024-03-08T12:20:21;1.20;;;1.20;;
9720;SDS011;4899;42.644;23.366;2024-03-08T12:22:55;1.63;;;1.53;;
9720;SDS011;4899;42.644;23.366;2024-03-08T12:25:30;1.30;;;1.30;;
9720;SDS011;4899;42.644;23.366;2024-03-08T12:27:56;1.43;;;1.40;;
9720;SDS011;4899;42.644;23.366;2024-03-08T12:30:25;1.50;;;1.40;;
9720;SDS011;4899;42.644;23.366;2024-03-08T12:32:55;2.27;;;1.40;;
9720;SDS011;4899;42.644;23.366;2024-03-08T12:35:25;1.80;;;1.70;;
9720;SDS011;4899;42.644;23.366;2024-03-08T12:37:57;1.57;;;1.47;;
9720;SDS011;4899;42.644;23.366;2024-03-08T12:42:52;1.20;;;1.20;;
9720;SDS011;4899;42.644;23.366;2024-03-08T12:45:18;1.40;;;1.30;;
9720;SDS011;4899;42.644;23.366;2024-03-08T12:47:43;1.37;;;1.27;;
9720;SDS011;4899;42.644;23.366;2024-03-08T12:50:09;2.30;;;1.83;;
9720;SDS011;4899;42.644;23.366;2024-03-08T12:52:35;2.33;;;2.23;;
9720;SDS011;4899;42.644;23.366;2024-03-08T12:55:00;3.00;;;2.47;;
9720;SDS011;4899;42.644;23.366;2024-03-08T12:57:28;1.60;;;1.50;;
9720;SDS011;4899;42.644;23.366;2024-03-08T12:59:54;1.80;;;1.60;;
9720;SDS011;4899;42.644;23.366;2024-03-08T13:02:19;1.70;;;1.60;;
9720;SDS011;4899;42.644;23.366;2024-03-08T13:04:45;4.00;;;1.53;;
9720;SDS011;4899;42.644;23.366;2024-03-08T13:07:10;2.73;;;1.50;;
9720;SDS011;4899;42.644;23.366;2024-03-08T13:09:36;1.50;;;1.40;;
9720;SDS011;4899;42.644;23.366;2024-03-08T13:12:02;1.70;;;1.60;;
9720;SDS011;4899;42.644;23.366;2024-03-08T13:14:28;1.73;;;1.63;;
9720;SDS011;4899;42.644;23.366;2024-03-08T13:16:57;1.27;;;1.17;;
9720;SDS011;4899;42.644;23.366;2024-03-08T13:19:24;1.47;;;1.17;;
9720;SDS011;4899;42.644;23.366;2024-03-08T13:21:49;1.30;;;1.30;;
9720;SDS011;4899;42.644;23.366;2024-03-08T13:24:14;1.47;;;1.40;;
9720;SDS011;4899;42.644;23.366;2024-03-08T13:26:41;1.40;;;1.30;;
9720;SDS011;4899;42.644;23.366;2024-03-08T13:29:08;1.80;;;1.63;;
9720;SDS011;4899;42.644;23.366;2024-03-08T13:31:33;1.40;;;1.30;;
9720;SDS011;4899;42.644;23.366;2024-03-08T13:34:01;3.63;;;1.73;;
9720;SDS011;4899;42.644;23.366;2024-03-08T13:36:26;2.72;;;2.35;;
9720;SDS011;4899;42.644;23.366;2024-03-08T13:39:00;1.60;;;1.50;;
9720;SDS011;4899;42.644;23.366;2024-03-08T13:41:25;1.63;;;1.52;;
9720;SDS011;4899;42.644;23.366;2024-03-08T13:43:51;1.40;;;1.40;;
9720;SDS011;4899;42.644;23.366;2024-03-08T13:46:16;1.70;;;1.60;;
9720;SDS011;4899;42.644;23.366;2024-03-08T13:48:42;1.57;;;1.47;;
9720;SDS011;4899;42.644;23.366;2024-03-08T13:51:08;1.63;;;1.50;;
9720;SDS011;4899;42.644;23.366;2024-03-08T13:53:35;1.53;;;1.43;;
9720;SDS011;4899;42.644;23.366;2024-03-08T13:56:04;1.33;;;1.33;;
9720;SDS011;4899;42.644;23.366;2024-03-08T13:58:30;2.70;;;1.37;;
9720;SDS011;4899;42.644;23.366;2024-03-08T14:00:56;2.07;;;1.60;;
9720;SDS011;4899;42.644;23.366;2024-03-08T14:03:21;1.90;;;1.27;;
9720;SDS011;4899;42.644;23.366;2024-03-08T14:05:47;1.43;;;1.33;;
9720;SDS011;4899;42.644;23.366;2024-03-08T14:08:12;2.87;;;1.57;;
9720;SDS011;4899;42.644;23.366;2024-03-08T14:10:38;3.13;;;1.43;;
9720;SDS011;4899;42.644;23.366;2024-03-08T14:13:03;2.37;;;1.60;;
9720;SDS011;4899;42.644;23.366;2024-03-08T14:15:30;1.63;;;1.53;;
9720;SDS011;4899;42.644;23.366;2024-03-08T14:17:56;1.93;;;1.43;;
9720;SDS011;4899;42.644;23.366;2024-03-08T14:20:22;1.60;;;1.40;;
9720;SDS011;4899;42.644;23.366;2024-03-08T14:22:51;2.03;;;1.93;;
9720;SDS011;4899;42.644;23.366;2024-03-08T14:25:16;3.47;;;1.97;;
9720;SDS011;4899;42.644;23.366;2024-03-08T14:27:44;1.90;;;1.80;;
9720;SDS011;4899;42.644;23.366;2024-03-08T14:30:11;2.87;;;1.77;;
9720;SDS011;4899;42.644;23.366;2024-03-08T14:32:36;2.00;;;1.90;;
9720;SDS011;4899;42.644;23.366;2024-03-08T14:35:03;3.20;;;1.80;;
9720;SDS011;4899;42.644;23.366;2024-03-08T14:37:29;2.10;;;2.00;;
9720;SDS011;4899;42.644;23.366;2024-03-08T14:39:54;3.33;;;1.90;;
9720;SDS011;4899;42.644;23.366;2024-03-08T14:42:21;1.67;;;1.57;;
9720;SDS011;4899;42.644;23.366;2024-03-08T14:44:47;2.30;;;1.90;;
9720;SDS011;4899;42.644;23.366;2024-03-08T14:47:16;2.70;;;1.87;;
9720;SDS011;4899;42.644;23.366;2024-03-08T14:49:41;2.60;;;1.80;;
9720;SDS011;4899;42.644;23.366;2024-03-08T14:52:07;2.67;;;2.27;;
9720;SDS011;4899;42.644;23.366;2024-03-08T14:54:52;4.63;;;2.10;;
9720;SDS011;4899;42.644;23.366;2024-03-08T14:57:17;2.60;;;2.40;;
9720;SDS011;4899;42.644;23.366;2024-03-08T14:59:42;2.63;;;2.30;;
9720;SDS011;4899;42.644;23.366;2024-03-08T15:02:09;2.70;;;2.37;;